Nearby METAR Reports

 

KSEE - San Diego/Santee, California, USA
Distance from station: E 4mi, 6km
Updated: Wed, 28-Sep-2022 3:15am PDT
Clear
Clear
 Wind from calm
Wind: Calm
Temperature: 68°F , 20°C
Dew Point: 59°F , 15°C
Humidity: 73%
Barometer: 29.88 inHg , 1011.9 hPa
Clouds: Clear
Visibility: 10 miles , 16 km
2022/09/28 10:15 KSEE 281015Z AUTO 00000KT 10SM CLR 20/15 A2988 RMK AO2
KMYF - San Diego/Mntgmy, California, USA
Distance from station: W 6mi, 10km
Updated: Wed, 28-Sep-2022 2:53am PDT
Clear
Clear
 Wind from calm
Wind: Calm
Temperature: 68°F , 20°C
Dew Point: 64°F , 18°C
Humidity: 88%
Barometer: 29.89 inHg , 1012.2 hPa
Clouds: Clear
Visibility: 7 miles , 11 km
2022/09/28 09:53 KMYF 280953Z AUTO 00000KT 7SM CLR 20/18 A2989 RMK AO2 SLP117 T02000183
 
KNKX - Miramar Nas/San, California, USA
Distance from station: WNW 7mi, 11km
Updated: Wed, 28-Sep-2022 2:55am PDT
Clear
Clear
 Wind from E
Wind: E 3 mph , 6 km/h
Temperature: 63°F , 17°C
Dew Point: 61°F , 16°C
Humidity: 94%
Barometer: 29.89 inHg , 1012.2 hPa
Clouds: Clear
Visibility: 10 miles , 16 km
2022/09/28 09:55 KNKX 280955Z 08003KT 10SM CLR 17/16 A2989 RMK AO2 SLP114 T01720156
KSAN - San Diego, California, USA
Distance from station: WSW 11mi, 17km
Updated: Wed, 28-Sep-2022 2:58am PDT
Fog, Overcast
Fog, Overcast
 Wind from calm
Wind: Calm
Temperature: 70°F , 21°C
Dew Point: 68°F , 20°C
Humidity: 94%
Barometer: 29.90 inHg , 1012.5 hPa
Summary: Fog
Clouds: Overcast
Visibility: 1/2 mile , 0.8 km
Cloud details: Overcast 200 ft
2022/09/28 09:58 KSAN 280958Z 00000KT 1/2SM R09/2400V4500FT FG VV002 21/20 A2990 RMK AO2 T02060200
 
KNZY - North Island Nas, California, USA
Distance from station: SW 13mi, 22km
Updated: Wed, 28-Sep-2022 2:52am PDT
Fog, Overcast
Fog, Overcast
 Wind from calm
Wind: Calm
Temperature: 66°F , 19°C
Dew Point: 64°F , 18°C
Humidity: 94%
Barometer: 29.88 inHg , 1011.9 hPa
Summary: Fog
Clouds: Overcast
Visibility: 1/4 mile , 0.4 km
Cloud details: Overcast 200 ft
2022/09/28 09:52 KNZY 280952Z 00000KT 1/4SM FG VV002 19/18 A2988 RMK AO2 SLP117 T01890183
KRNM - Ramona, California, USA
Distance from station: NNE 16mi, 26km
Updated: Wed, 28-Sep-2022 2:53am PDT
Clear
Clear
 Wind from calm
Wind: Calm
Temperature: 64°F , 18°C
Dew Point: 54°F , 12°C
Humidity: 68%
Barometer: 29.93 inHg , 1013.5 hPa
Clouds: Clear
Visibility: 10 miles , 16 km
2022/09/28 09:53 KRNM 280953Z AUTO 00000KT 10SM CLR 18/12 A2993 RMK AO2 SLP115 T01780122
 
KSDM - San Diego/Brown, California, USA
Distance from station: S 16mi, 26km
Updated: Wed, 28-Sep-2022 3:32am PDT
Fog, Overcast
Fog, Overcast
 Wind from calm
Wind: Calm
Temperature: 66°F , 19°C
Dew Point: 64°F , 18°C
Humidity: 94%
Barometer: 29.89 inHg , 1012.2 hPa
Summary: Fog
Clouds: Overcast
Visibility: 1/4 mile , 0.4 km
Cloud details: Overcast 100 ft
2022/09/28 10:32 KSDM 281032Z AUTO 00000KT 1/4SM FG VV001 19/18 A2989 RMK AO2 T01890183
KNRS - Imperial Beach, California, USA
Distance from station: SSW 18mi, 29km
Updated: Wed, 28-Sep-2022 2:53am PDT
Fog, Overcast
Fog, Overcast
 Wind from calm
Wind: Calm
Temperature: 68°F , 20°C
Dew Point: 68°F , 20°C
Humidity: 100%
Barometer: 29.89 inHg , 1012.2 hPa
Summary: Fog
Clouds: Overcast
Visibility: 1/4 mile , 0.4 km
Cloud details: Overcast 200 ft
2022/09/28 09:53 KNRS 280953Z AUTO 00000KT 1/4SM FG VV002 20/20 A2989 RMK AO2 SLP121 T02000200
 
MMTJ - Tijuana Intl Arp, Mexico
Distance from station: S 20mi, 32km
Updated: Wed, 28-Sep-2022 2:40am PDT
Mist, Overcast
Mist, Overcast
 Wind from W
Wind: W 5 mph , 7 km/h
Temperature: 66°F , 19°C
Dew Point: 66°F , 19°C
Humidity: 100%
Barometer: 29.92 inHg , 1013.2 hPa
Summary: Mist
Clouds: Overcast
Visibility: 3/4 mile , 1.2 km
Cloud details: Overcast 100 ft
2022/09/28 09:40 MMTJ 280940Z 28004KT 3/4SM BR VV001 19/19 A2992 RMK 8////
KCRQ - Carlsbad, California, USA
Distance from station: NW 26mi, 43km
Updated: Wed, 28-Sep-2022 3:19am PDT
Fog, Overcast
Fog, Overcast
 Wind from calm
Wind: Calm
Temperature: 66°F , 19°C
Dew Point: 66°F , 19°C
Humidity: 100%
Barometer: 29.88 inHg , 1011.9 hPa
Summary: Fog
Clouds: Overcast
Visibility: 1/4 mile , 0.4 km
Cloud details: Overcast 100 ft
2022/09/28 10:19 KCRQ 281019Z AUTO 00000KT 1/4SM R24/1200V2200FT FG VV001 19/19 A2988 RMK AO2 T01890189
 
KOKB - Oceanside, California, USA
Distance from station: NW 33mi, 54km
Updated: Wed, 28-Sep-2022 3:20am PDT
Fog, Overcast
Fog, Overcast
 Wind from calm
Wind: Calm
Temperature: 66°F , 19°C
Dew Point: 66°F , 19°C
Humidity: 100%
Barometer: 29.88 inHg , 1011.9 hPa
Summary: Fog
Clouds: Overcast
Visibility: 1/2 mile , 0.8 km
Cloud details: Overcast 200 ft
2022/09/28 10:20 KOKB 281020Z AUTO 00000KT 1/2SM FG VV002 19/19 A2988 RMK AO2 T01890189
KCZZ - Campo, California, USA
Distance from station: ESE 35mi, 56km
Updated: Mon, 26-Oct-2020 8:52am PDT
NOT Current

 Wind from NE
Wind: NE 14 mph , 22 km/h, Gust: 20 mph , 31 km/h
Temperature: 48°F , 9°C
Wind Chill: 42°F , 6°C
Dew Point: 27°F , -3°C
Humidity: 43%
Barometer: 29.99 inHg , 1015.6 hPa
2020/10/26 15:52 KCZZ 261552Z AUTO 05012G17KT 09/M03 A2999 RMK AO1 SLP140 T00891028
 
KNFG - Camp Pendleton, California, USA
Distance from station: NNW 37mi, 59km
Updated: Wed, 28-Sep-2022 2:52am PDT
Clear
Clear
 Wind from calm
Wind: Calm
Temperature: 63°F , 17°C
Dew Point: 61°F , 16°C
Humidity: 94%
Barometer: 29.89 inHg , 1012.2 hPa
Clouds: Clear
Visibility: 8 miles , 13 km
2022/09/28 09:52 KNFG 280952Z AUTO 00000KT 8SM CLR 17/16 A2989 RMK AO2 SLP119 T01720161
KRIV - Riverside/March, California, USA
Distance from station: N 74mi, 119km
Updated: Wed, 28-Sep-2022 2:55am PDT
Clear
Clear
 Wind from calm
Wind: Calm
Temperature: 70°F , 21°C
Dew Point: 55°F , 13°C
Humidity: 60%
Barometer: 29.94 inHg , 1013.9 hPa
Clouds: Clear
Visibility: 10 miles , 16 km
2022/09/28 09:55 KRIV 280955Z AUTO 00000KT 10SM CLR 21/13 A2994 RMK AO2 SLPNO T02130129
 
KTRM - Thermal/Palm Spg, California, USA
Distance from station: NE 75mi, 121km
Updated: Wed, 28-Sep-2022 2:52am PDT
Clear
Clear
 Wind from N
Wind: N 6 mph , 9 km/h
Temperature: 82°F , 28°C
Dew Point: 54°F , 12°C
Humidity: 37%
Barometer: 29.79 inHg , 1008.8 hPa
Clouds: Clear
Visibility: 10 miles , 16 km
2022/09/28 09:52 KTRM 280952Z AUTO 35005KT 10SM CLR 28/12 A2979 RMK AO2 SLP092 T02830122
KPSP - Palm Springs, California, USA
Distance from station: NNE 76mi, 122km
Updated: Wed, 28-Sep-2022 2:53am PDT
Clear
Clear
 Wind from NNW
Wind: NNW 7 mph , 11 km/h
Temperature: 88°F , 31°C
Dew Point: 46°F , 8°C
Humidity: 24%
Barometer: 29.86 inHg , 1011.2 hPa
Clouds: Clear
Visibility: 10 miles , 16 km
2022/09/28 09:53 KPSP 280953Z AUTO 33006KT 10SM CLR 31/08 A2986 RMK AO2 SLP108 T03060083
 
KSNA - Costa Mesa, California, USA
Distance from station: NW 76mi, 123km
Updated: Wed, 28-Sep-2022 2:53am PDT
Clear
Clear
 Wind from calm
Wind: Calm
Temperature: 72°F , 22°C
Dew Point: 64°F , 18°C
Humidity: 78%
Barometer: 29.88 inHg , 1011.9 hPa
Clouds: Clear
Visibility: 10 miles , 16 km
2022/09/28 09:53 KSNA 280953Z AUTO 00000KT 10SM CLR 22/18 A2988 RMK AO2 SLP117 T02220178
KNJK - El Centro Naf, California, USA
Distance from station: E 79mi, 127km
Updated: Wed, 28-Sep-2022 2:56am PDT

 
2022/09/28 09:56 KNJK 280956Z AUTO RMK AO2 SLPNO PWINO $
 
KAJO - Corona Muni, California, USA
Distance from station: NNW 82mi, 132km
Updated: Wed, 28-Sep-2022 2:56am PDT
Clear
Clear
 Wind from calm
Wind: Calm
Temperature: 64°F , 18°C
Dew Point: 59°F , 15°C
Humidity: 83%
Barometer: 29.91 inHg , 1012.9 hPa
Clouds: Clear
Visibility: 10 miles , 16 km
2022/09/28 09:56 KAJO 280956Z AUTO 00000KT 10SM CLR 18/15 A2991 RMK AO2 SLP120 T01830150